sensor_id;sensor_type;location;lat;lon;timestamp;temperature;humidity
44190;DHT22;29856;52.144;5.430;2023-12-07T00:00:16;3.80;99.90
44190;DHT22;29856;52.144;5.430;2023-12-07T00:02:41;3.70;99.90
44190;DHT22;29856;52.144;5.430;2023-12-07T00:05:07;3.60;99.90
44190;DHT22;29856;52.144;5.430;2023-12-07T00:07:32;3.80;99.90
44190;DHT22;29856;52.144;5.430;2023-12-07T00:09:58;3.90;99.90
44190;DHT22;29856;52.144;5.430;2023-12-07T00:12:23;3.90;99.90
44190;DHT22;29856;52.144;5.430;2023-12-07T00:14:49;3.90;99.90
44190;DHT22;29856;52.144;5.430;2023-12-07T00:17:14;4.20;99.90
44190;DHT22;29856;52.144;5.430;2023-12-07T00:19:40;4.20;99.90
44190;DHT22;29856;52.144;5.430;2023-12-07T00:22:05;4.60;99.90
44190;DHT22;29856;52.144;5.430;2023-12-07T00:24:31;4.60;99.90
44190;DHT22;29856;52.144;5.430;2023-12-07T00:26:56;4.30;99.90
44190;DHT22;29856;52.144;5.430;2023-12-07T00:29:22;3.90;99.90
44190;DHT22;29856;52.144;5.430;2023-12-07T00:31:47;4.10;99.90
44190;DHT22;29856;52.144;5.430;2023-12-07T00:34:13;4.20;99.90
44190;DHT22;29856;52.144;5.430;2023-12-07T00:36:38;4.10;99.90
44190;DHT22;29856;52.144;5.430;2023-12-07T00:39:03;3.70;99.90
44190;DHT22;29856;52.144;5.430;2023-12-07T00:41:29;3.40;99.90
44190;DHT22;29856;52.144;5.430;2023-12-07T00:43:54;3.20;99.90
44190;DHT22;29856;52.144;5.430;2023-12-07T00:46:20;3.00;99.90
44190;DHT22;29856;52.144;5.430;2023-12-07T00:48:45;2.90;99.90
44190;DHT22;29856;52.144;5.430;2023-12-07T00:51:11;3.00;99.90
44190;DHT22;29856;52.144;5.430;2023-12-07T00:53:36;3.40;99.90
44190;DHT22;29856;52.144;5.430;2023-12-07T00:56:03;3.60;99.90
44190;DHT22;29856;52.144;5.430;2023-12-07T00:58:28;3.50;99.90
44190;DHT22;29856;52.144;5.430;2023-12-07T01:00:54;3.50;99.90
44190;DHT22;29856;52.144;5.430;2023-12-07T01:03:19;3.70;99.90
44190;DHT22;29856;52.144;5.430;2023-12-07T01:05:45;3.70;99.90
44190;DHT22;29856;52.144;5.430;2023-12-07T01:08:10;3.60;99.90
44190;DHT22;29856;52.144;5.430;2023-12-07T01:10:36;3.20;99.90
44190;DHT22;29856;52.144;5.430;2023-12-07T01:13:01;3.00;99.90
44190;DHT22;29856;52.144;5.430;2023-12-07T01:15:27;2.80;99.90
44190;DHT22;29856;52.144;5.430;2023-12-07T01:17:52;2.60;99.90
44190;DHT22;29856;52.144;5.430;2023-12-07T01:20:18;2.40;99.90
44190;DHT22;29856;52.144;5.430;2023-12-07T01:22:43;2.30;99.90
44190;DHT22;29856;52.144;5.430;2023-12-07T01:25:09;2.20;99.90
44190;DHT22;29856;52.144;5.430;2023-12-07T01:27:34;2.20;99.90
44190;DHT22;29856;52.144;5.430;2023-12-07T01:30:00;2.40;99.90
44190;DHT22;29856;52.144;5.430;2023-12-07T01:32:25;2.40;99.90
44190;DHT22;29856;52.144;5.430;2023-12-07T01:34:51;2.90;99.90
44190;DHT22;29856;52.144;5.430;2023-12-07T01:37:16;3.40;99.90
44190;DHT22;29856;52.144;5.430;2023-12-07T01:39:42;3.80;99.90
44190;DHT22;29856;52.144;5.430;2023-12-07T01:42:08;3.90;99.90
44190;DHT22;29856;52.144;5.430;2023-12-07T01:44:33;3.60;99.90
44190;DHT22;29856;52.144;5.430;2023-12-07T01:46:59;3.70;99.90
44190;DHT22;29856;52.144;5.430;2023-12-07T01:49:24;3.70;99.90
44190;DHT22;29856;52.144;5.430;2023-12-07T01:51:50;4.00;99.90
44190;DHT22;29856;52.144;5.430;2023-12-07T01:54:15;4.00;99.90
44190;DHT22;29856;52.144;5.430;2023-12-07T01:56:41;3.90;99.90
44190;DHT22;29856;52.144;5.430;2023-12-07T01:59:07;4.00;99.90
44190;DHT22;29856;52.144;5.430;2023-12-07T02:01:33;4.30;99.90
44190;DHT22;29856;52.144;5.430;2023-12-07T02:03:58;4.50;99.90
44190;DHT22;29856;52.144;5.430;2023-12-07T02:06:24;4.40;99.90
44190;DHT22;29856;52.144;5.430;2023-12-07T02:08:49;3.90;99.90
44190;DHT22;29856;52.144;5.430;2023-12-07T02:11:15;3.90;99.90
44190;DHT22;29856;52.144;5.430;2023-12-07T02:13:40;3.90;99.90
44190;DHT22;29856;52.144;5.430;2023-12-07T02:16:13;3.80;99.90
44190;DHT22;29856;52.144;5.430;2023-12-07T02:18:51;4.00;99.90
44190;DHT22;29856;52.144;5.430;2023-12-07T02:21:34;4.00;99.90
44190;DHT22;29856;52.144;5.430;2023-12-07T02:24:02;4.20;99.90
44190;DHT22;29856;52.144;5.430;2023-12-07T02:26:35;3.90;99.90
44190;DHT22;29856;52.144;5.430;2023-12-07T02:29:00;3.80;99.90
44190;DHT22;29856;52.144;5.430;2023-12-07T02:31:27;4.00;99.90
44190;DHT22;29856;52.144;5.430;2023-12-07T02:33:52;4.10;99.90
44190;DHT22;29856;52.144;5.430;2023-12-07T02:36:20;4.20;99.90
44190;DHT22;29856;52.144;5.430;2023-12-07T02:38:49;4.10;99.90
44190;DHT22;29856;52.144;5.430;2023-12-07T02:41:17;4.20;99.90
44190;DHT22;29856;52.144;5.430;2023-12-07T02:43:43;4.40;99.90
44190;DHT22;29856;52.144;5.430;2023-12-07T02:46:08;4.50;99.90
44190;DHT22;29856;52.144;5.430;2023-12-07T02:48:34;4.70;99.90
44190;DHT22;29856;52.144;5.430;2023-12-07T02:50:59;4.40;99.90
44190;DHT22;29856;52.144;5.430;2023-12-07T02:53:25;4.60;99.90
44190;DHT22;29856;52.144;5.430;2023-12-07T02:55:50;4.90;99.90
44190;DHT22;29856;52.144;5.430;2023-12-07T02:58:16;4.80;99.90
44190;DHT22;29856;52.144;5.430;2023-12-07T03:00:41;5.00;99.90
44190;DHT22;29856;52.144;5.430;2023-12-07T03:03:06;5.00;99.90
44190;DHT22;29856;52.144;5.430;2023-12-07T03:05:32;5.10;99.90
44190;DHT22;29856;52.144;5.430;2023-12-07T03:07:57;4.90;99.90
44190;DHT22;29856;52.144;5.430;2023-12-07T03:10:23;5.00;99.90
44190;DHT22;29856;52.144;5.430;2023-12-07T03:12:48;4.90;99.90
44190;DHT22;29856;52.144;5.430;2023-12-07T03:15:14;4.70;99.90
44190;DHT22;29856;52.144;5.430;2023-12-07T03:17:39;4.80;99.90
44190;DHT22;29856;52.144;5.430;2023-12-07T03:20:05;5.10;99.90
44190;DHT22;29856;52.144;5.430;2023-12-07T03:22:31;5.00;99.90
44190;DHT22;29856;52.144;5.430;2023-12-07T03:24:56;4.80;99.90
44190;DHT22;29856;52.144;5.430;2023-12-07T03:27:22;4.70;99.90
44190;DHT22;29856;52.144;5.430;2023-12-07T03:29:47;4.80;99.90
44190;DHT22;29856;52.144;5.430;2023-12-07T03:32:13;4.80;99.90
44190;DHT22;29856;52.144;5.430;2023-12-07T03:34:38;5.00;99.90
44190;DHT22;29856;52.144;5.430;2023-12-07T03:37:04;5.10;99.90
44190;DHT22;29856;52.144;5.430;2023-12-07T03:39:29;5.00;99.90
44190;DHT22;29856;52.144;5.430;2023-12-07T03:41:55;4.90;99.90
44190;DHT22;29856;52.144;5.430;2023-12-07T03:44:20;4.80;99.90
44190;DHT22;29856;52.144;5.430;2023-12-07T03:46:46;5.00;99.90
44190;DHT22;29856;52.144;5.430;2023-12-07T03:49:13;5.20;99.90
44190;DHT22;29856;52.144;5.430;2023-12-07T03:51:38;5.20;99.90
44190;DHT22;29856;52.144;5.430;2023-12-07T03:54:04;5.00;99.90
44190;DHT22;29856;52.144;5.430;2023-12-07T03:56:31;5.00;99.90
44190;DHT22;29856;52.144;5.430;2023-12-07T03:58:57;5.10;99.90
44190;DHT22;29856;52.144;5.430;2023-12-07T04:01:27;5.00;99.90
44190;DHT22;29856;52.144;5.430;2023-12-07T04:03:55;4.70;99.90
44190;DHT22;29856;52.144;5.430;2023-12-07T04:06:21;4.50;99.90
44190;DHT22;29856;52.144;5.430;2023-12-07T04:08:47;4.60;99.90
44190;DHT22;29856;52.144;5.430;2023-12-07T04:11:13;4.60;99.90
44190;DHT22;29856;52.144;5.430;2023-12-07T04:13:40;4.60;99.90
44190;DHT22;29856;52.144;5.430;2023-12-07T04:16:06;4.60;99.90
44190;DHT22;29856;52.144;5.430;2023-12-07T04:18:31;4.60;99.90
44190;DHT22;29856;52.144;5.430;2023-12-07T04:20:57;4.50;99.90
44190;DHT22;29856;52.144;5.430;2023-12-07T04:23:22;4.40;99.90
44190;DHT22;29856;52.144;5.430;2023-12-07T04:25:48;4.10;99.90
44190;DHT22;29856;52.144;5.430;2023-12-07T04:28:13;4.10;99.90
44190;DHT22;29856;52.144;5.430;2023-12-07T04:30:39;4.30;99.90
44190;DHT22;29856;52.144;5.430;2023-12-07T04:33:04;4.50;99.90
44190;DHT22;29856;52.144;5.430;2023-12-07T04:35:30;4.60;99.90
44190;DHT22;29856;52.144;5.430;2023-12-07T04:37:56;4.70;99.90
44190;DHT22;29856;52.144;5.430;2023-12-07T04:40:23;4.60;99.90
44190;DHT22;29856;52.144;5.430;2023-12-07T04:42:49;4.40;99.90
44190;DHT22;29856;52.144;5.430;2023-12-07T04:45:14;4.10;99.90
44190;DHT22;29856;52.144;5.430;2023-12-07T04:47:40;3.70;99.90
44190;DHT22;29856;52.144;5.430;2023-12-07T04:50:06;3.40;99.90
44190;DHT22;29856;52.144;5.430;2023-12-07T04:52:31;3.70;99.90
44190;DHT22;29856;52.144;5.430;2023-12-07T04:54:57;3.90;99.90
44190;DHT22;29856;52.144;5.430;2023-12-07T04:57:22;3.90;99.90
44190;DHT22;29856;52.144;5.430;2023-12-07T04:59:47;4.20;99.90
44190;DHT22;29856;52.144;5.430;2023-12-07T05:02:14;4.10;99.90
44190;DHT22;29856;52.144;5.430;2023-12-07T05:04:40;4.00;99.90
44190;DHT22;29856;52.144;5.430;2023-12-07T05:07:05;4.10;99.90
44190;DHT22;29856;52.144;5.430;2023-12-07T05:09:31;4.20;99.90
44190;DHT22;29856;52.144;5.430;2023-12-07T05:11:56;4.30;99.90
44190;DHT22;29856;52.144;5.430;2023-12-07T05:14:22;4.40;99.90
44190;DHT22;29856;52.144;5.430;2023-12-07T05:16:47;4.50;99.90
44190;DHT22;29856;52.144;5.430;2023-12-07T05:19:13;4.30;99.90
44190;DHT22;29856;52.144;5.430;2023-12-07T05:21:38;4.20;99.90
44190;DHT22;29856;52.144;5.430;2023-12-07T05:24:04;4.30;99.90
44190;DHT22;29856;52.144;5.430;2023-12-07T05:26:29;4.20;99.90
44190;DHT22;29856;52.144;5.430;2023-12-07T05:28:55;4.10;99.90
44190;DHT22;29856;52.144;5.430;2023-12-07T05:31:20;4.20;99.90
44190;DHT22;29856;52.144;5.430;2023-12-07T05:33:46;4.20;99.90
44190;DHT22;29856;52.144;5.430;2023-12-07T05:36:11;4.20;99.90
44190;DHT22;29856;52.144;5.430;2023-12-07T05:38:37;4.00;99.90
44190;DHT22;29856;52.144;5.430;2023-12-07T05:41:02;3.90;99.90
44190;DHT22;29856;52.144;5.430;2023-12-07T05:43:28;4.00;99.90
44190;DHT22;29856;52.144;5.430;2023-12-07T05:45:53;3.80;99.90
44190;DHT22;29856;52.144;5.430;2023-12-07T05:48:18;3.90;99.90
44190;DHT22;29856;52.144;5.430;2023-12-07T05:50:44;3.80;99.90
44190;DHT22;29856;52.144;5.430;2023-12-07T05:53:09;3.80;99.90
44190;DHT22;29856;52.144;5.430;2023-12-07T05:55:35;3.60;99.90
44190;DHT22;29856;52.144;5.430;2023-12-07T05:58:00;3.50;99.90
44190;DHT22;29856;52.144;5.430;2023-12-07T06:00:26;3.40;99.90
44190;DHT22;29856;52.144;5.430;2023-12-07T06:02:51;3.20;99.90
44190;DHT22;29856;52.144;5.430;2023-12-07T06:05:17;3.10;99.90
44190;DHT22;29856;52.144;5.430;2023-12-07T06:07:42;3.10;99.90
44190;DHT22;29856;52.144;5.430;2023-12-07T06:10:08;3.10;99.90
44190;DHT22;29856;52.144;5.430;2023-12-07T06:12:34;3.10;99.90
44190;DHT22;29856;52.144;5.430;2023-12-07T06:14:59;3.00;99.90
44190;DHT22;29856;52.144;5.430;2023-12-07T06:17:25;3.10;99.90
44190;DHT22;29856;52.144;5.430;2023-12-07T06:19:50;2.90;99.90
44190;DHT22;29856;52.144;5.430;2023-12-07T06:22:16;2.90;99.90
44190;DHT22;29856;52.144;5.430;2023-12-07T06:24:41;3.00;99.90
44190;DHT22;29856;52.144;5.430;2023-12-07T06:27:06;3.20;99.90
44190;DHT22;29856;52.144;5.430;2023-12-07T06:29:32;3.00;99.90
44190;DHT22;29856;52.144;5.430;2023-12-07T06:31:57;3.00;99.90
44190;DHT22;29856;52.144;5.430;2023-12-07T06:34:23;2.90;99.90
44190;DHT22;29856;52.144;5.430;2023-12-07T06:36:48;2.90;99.90
44190;DHT22;29856;52.144;5.430;2023-12-07T06:39:14;3.10;99.90
44190;DHT22;29856;52.144;5.430;2023-12-07T06:41:39;3.00;99.90
44190;DHT22;29856;52.144;5.430;2023-12-07T06:44:06;2.90;99.90
44190;DHT22;29856;52.144;5.430;2023-12-07T06:46:32;2.80;99.90
44190;DHT22;29856;52.144;5.430;2023-12-07T06:48:57;2.80;99.90
44190;DHT22;29856;52.144;5.430;2023-12-07T06:51:22;2.80;99.90
44190;DHT22;29856;52.144;5.430;2023-12-07T06:53:48;3.00;99.90
44190;DHT22;29856;52.144;5.430;2023-12-07T06:56:13;3.00;99.90
44190;DHT22;29856;52.144;5.430;2023-12-07T06:58:39;3.00;99.90
44190;DHT22;29856;52.144;5.430;2023-12-07T07:01:04;2.80;99.90
44190;DHT22;29856;52.144;5.430;2023-12-07T07:03:30;2.90;99.90
44190;DHT22;29856;52.144;5.430;2023-12-07T07:05:55;2.80;99.90
44190;DHT22;29856;52.144;5.430;2023-12-07T07:08:21;2.80;99.90
44190;DHT22;29856;52.144;5.430;2023-12-07T07:10:46;2.80;99.90
44190;DHT22;29856;52.144;5.430;2023-12-07T07:13:12;2.70;99.90
44190;DHT22;29856;52.144;5.430;2023-12-07T07:15:37;2.70;99.90
44190;DHT22;29856;52.144;5.430;2023-12-07T07:18:03;2.60;99.90
44190;DHT22;29856;52.144;5.430;2023-12-07T07:20:28;2.50;99.90
44190;DHT22;29856;52.144;5.430;2023-12-07T07:22:54;2.60;99.90
44190;DHT22;29856;52.144;5.430;2023-12-07T07:25:19;2.50;99.90
44190;DHT22;29856;52.144;5.430;2023-12-07T07:27:48;2.60;99.90
44190;DHT22;29856;52.144;5.430;2023-12-07T07:30:13;2.80;99.90
44190;DHT22;29856;52.144;5.430;2023-12-07T07:32:39;2.70;99.90
44190;DHT22;29856;52.144;5.430;2023-12-07T07:35:05;2.80;99.90
44190;DHT22;29856;52.144;5.430;2023-12-07T07:37:30;2.80;99.90
44190;DHT22;29856;52.144;5.430;2023-12-07T07:39:56;2.70;99.90
44190;DHT22;29856;52.144;5.430;2023-12-07T07:42:21;2.70;99.90
44190;DHT22;29856;52.144;5.430;2023-12-07T07:44:47;2.70;99.90
44190;DHT22;29856;52.144;5.430;2023-12-07T07:47:12;2.60;99.90
44190;DHT22;29856;52.144;5.430;2023-12-07T07:49:38;2.50;99.90
44190;DHT22;29856;52.144;5.430;2023-12-07T07:52:03;2.40;99.90
44190;DHT22;29856;52.144;5.430;2023-12-07T07:54:29;2.30;99.90
44190;DHT22;29856;52.144;5.430;2023-12-07T07:56:54;2.40;99.90
44190;DHT22;29856;52.144;5.430;2023-12-07T07:59:20;2.20;99.90
44190;DHT22;29856;52.144;5.430;2023-12-07T08:01:45;2.10;99.90
44190;DHT22;29856;52.144;5.430;2023-12-07T08:04:11;2.10;99.90
44190;DHT22;29856;52.144;5.430;2023-12-07T08:06:36;2.10;99.90
44190;DHT22;29856;52.144;5.430;2023-12-07T08:09:02;2.10;99.90
44190;DHT22;29856;52.144;5.430;2023-12-07T08:11:27;2.10;99.90
44190;DHT22;29856;52.144;5.430;2023-12-07T08:13:53;2.30;99.90
44190;DHT22;29856;52.144;5.430;2023-12-07T08:16:19;2.20;99.90
44190;DHT22;29856;52.144;5.430;2023-12-07T08:18:44;2.40;99.90
44190;DHT22;29856;52.144;5.430;2023-12-07T08:21:20;2.40;99.90
44190;DHT22;29856;52.144;5.430;2023-12-07T08:23:45;2.50;99.90
44190;DHT22;29856;52.144;5.430;2023-12-07T08:26:11;2.80;99.90
44190;DHT22;29856;52.144;5.430;2023-12-07T08:28:36;2.90;99.90
44190;DHT22;29856;52.144;5.430;2023-12-07T08:31:02;2.80;99.90
44190;DHT22;29856;52.144;5.430;2023-12-07T08:33:27;2.70;99.90
44190;DHT22;29856;52.144;5.430;2023-12-07T08:35:53;2.50;99.90
44190;DHT22;29856;52.144;5.430;2023-12-07T08:38:18;2.30;99.90
44190;DHT22;29856;52.144;5.430;2023-12-07T08:40:44;2.40;99.90
44190;DHT22;29856;52.144;5.430;2023-12-07T08:43:09;2.30;99.90
44190;DHT22;29856;52.144;5.430;2023-12-07T08:45:35;2.40;99.90
44190;DHT22;29856;52.144;5.430;2023-12-07T08:48:00;2.60;99.90
44190;DHT22;29856;52.144;5.430;2023-12-07T08:50:25;2.60;99.90
44190;DHT22;29856;52.144;5.430;2023-12-07T08:52:51;2.50;99.90
44190;DHT22;29856;52.144;5.430;2023-12-07T08:55:16;2.50;99.90
44190;DHT22;29856;52.144;5.430;2023-12-07T08:57:42;2.40;99.90
44190;DHT22;29856;52.144;5.430;2023-12-07T09:00:08;2.70;99.90
44190;DHT22;29856;52.144;5.430;2023-12-07T09:02:33;2.60;99.90
44190;DHT22;29856;52.144;5.430;2023-12-07T09:04:59;2.60;99.90
44190;DHT22;29856;52.144;5.430;2023-12-07T09:07:24;2.60;99.90
44190;DHT22;29856;52.144;5.430;2023-12-07T09:09:50;2.40;99.90
44190;DHT22;29856;52.144;5.430;2023-12-07T09:12:15;2.50;99.90
44190;DHT22;29856;52.144;5.430;2023-12-07T09:14:41;2.40;99.90
44190;DHT22;29856;52.144;5.430;2023-12-07T09:17:06;2.40;99.90
44190;DHT22;29856;52.144;5.430;2023-12-07T09:19:32;2.30;99.90
44190;DHT22;29856;52.144;5.430;2023-12-07T09:21:57;2.40;99.90
44190;DHT22;29856;52.144;5.430;2023-12-07T09:24:23;2.50;99.90
44190;DHT22;29856;52.144;5.430;2023-12-07T09:26:48;2.70;99.90
44190;DHT22;29856;52.144;5.430;2023-12-07T09:29:14;2.70;99.90
44190;DHT22;29856;52.144;5.430;2023-12-07T09:31:39;2.70;99.90
44190;DHT22;29856;52.144;5.430;2023-12-07T09:34:05;2.70;99.90
44190;DHT22;29856;52.144;5.430;2023-12-07T09:36:30;2.50;99.90
44190;DHT22;29856;52.144;5.430;2023-12-07T09:38:55;2.50;99.90
44190;DHT22;29856;52.144;5.430;2023-12-07T09:41:22;2.50;99.90
44190;DHT22;29856;52.144;5.430;2023-12-07T09:43:48;2.60;99.90
44190;DHT22;29856;52.144;5.430;2023-12-07T09:46:14;2.80;99.90
44190;DHT22;29856;52.144;5.430;2023-12-07T09:48:45;2.90;99.90
44190;DHT22;29856;52.144;5.430;2023-12-07T09:51:15;3.00;99.90
44190;DHT22;29856;52.144;5.430;2023-12-07T09:53:42;2.90;99.90
44190;DHT22;29856;52.144;5.430;2023-12-07T09:56:08;2.70;99.90
44190;DHT22;29856;52.144;5.430;2023-12-07T09:58:33;2.60;99.90
44190;DHT22;29856;52.144;5.430;2023-12-07T10:00:59;2.60;99.90
44190;DHT22;29856;52.144;5.430;2023-12-07T10:03:24;2.60;99.90
44190;DHT22;29856;52.144;5.430;2023-12-07T10:05:58;2.60;99.90
44190;DHT22;29856;52.144;5.430;2023-12-07T10:08:31;2.60;99.90
44190;DHT22;29856;52.144;5.430;2023-12-07T10:11:05;2.90;99.90
44190;DHT22;29856;52.144;5.430;2023-12-07T10:13:32;2.80;99.90
44190;DHT22;29856;52.144;5.430;2023-12-07T10:16:15;2.80;99.90
44190;DHT22;29856;52.144;5.430;2023-12-07T10:18:41;2.80;99.90
44190;DHT22;29856;52.144;5.430;2023-12-07T10:21:07;2.80;99.90
44190;DHT22;29856;52.144;5.430;2023-12-07T10:23:33;2.70;99.90
44190;DHT22;29856;52.144;5.430;2023-12-07T10:25:59;2.70;99.90
44190;DHT22;29856;52.144;5.430;2023-12-07T10:28:25;2.80;99.90
44190;DHT22;29856;52.144;5.430;2023-12-07T10:30:51;2.90;99.90
44190;DHT22;29856;52.144;5.430;2023-12-07T10:33:18;2.90;99.90
44190;DHT22;29856;52.144;5.430;2023-12-07T10:35:44;2.80;99.90
44190;DHT22;29856;52.144;5.430;2023-12-07T10:38:10;2.80;99.90
44190;DHT22;29856;52.144;5.430;2023-12-07T10:40:36;2.80;99.90
44190;DHT22;29856;52.144;5.430;2023-12-07T10:43:05;2.80;99.90
44190;DHT22;29856;52.144;5.430;2023-12-07T10:45:31;2.80;99.90
44190;DHT22;29856;52.144;5.430;2023-12-07T10:48:16;2.90;99.90
44190;DHT22;29856;52.144;5.430;2023-12-07T10:50:42;2.90;99.90
44190;DHT22;29856;52.144;5.430;2023-12-07T10:53:19;2.80;99.90
44190;DHT22;29856;52.144;5.430;2023-12-07T10:55:50;2.70;99.90
44190;DHT22;29856;52.144;5.430;2023-12-07T10:58:17;2.70;99.90
44190;DHT22;29856;52.144;5.430;2023-12-07T11:00:44;2.70;99.90
44190;DHT22;29856;52.144;5.430;2023-12-07T11:03:10;2.60;99.90
44190;DHT22;29856;52.144;5.430;2023-12-07T11:05:36;2.60;99.90
44190;DHT22;29856;52.144;5.430;2023-12-07T11:08:07;2.60;99.90
44190;DHT22;29856;52.144;5.430;2023-12-07T11:13:20;2.80;99.90
44190;DHT22;29856;52.144;5.430;2023-12-07T11:15:47;3.00;99.90
44190;DHT22;29856;52.144;5.430;2023-12-07T11:18:13;3.10;99.90
44190;DHT22;29856;52.144;5.430;2023-12-07T11:20:42;3.20;99.90
44190;DHT22;29856;52.144;5.430;2023-12-07T11:23:08;3.20;99.90
44190;DHT22;29856;52.144;5.430;2023-12-07T11:25:34;3.10;99.90
44190;DHT22;29856;52.144;5.430;2023-12-07T11:28:01;3.00;99.90
44190;DHT22;29856;52.144;5.430;2023-12-07T11:30:26;2.90;99.90
44190;DHT22;29856;52.144;5.430;2023-12-07T11:32:52;2.90;99.90
44190;DHT22;29856;52.144;5.430;2023-12-07T11:35:17;2.90;99.90
44190;DHT22;29856;52.144;5.430;2023-12-07T11:38:09;2.90;99.90
44190;DHT22;29856;52.144;5.430;2023-12-07T11:40:45;3.00;99.90
44190;DHT22;29856;52.144;5.430;2023-12-07T11:43:17;3.00;99.90
44190;DHT22;29856;52.144;5.430;2023-12-07T11:45:49;3.10;99.90
44190;DHT22;29856;52.144;5.430;2023-12-07T11:48:15;3.10;99.90
44190;DHT22;29856;52.144;5.430;2023-12-07T11:51:01;3.30;99.90
44190;DHT22;29856;52.144;5.430;2023-12-07T11:53:32;3.30;99.90
44190;DHT22;29856;52.144;5.430;2023-12-07T11:56:08;3.20;99.90
44190;DHT22;29856;52.144;5.430;2023-12-07T11:58:35;3.20;99.90
44190;DHT22;29856;52.144;5.430;2023-12-07T12:01:01;3.20;99.90
44190;DHT22;29856;52.144;5.430;2023-12-07T12:03:28;3.10;99.90
44190;DHT22;29856;52.144;5.430;2023-12-07T12:05:55;3.20;99.90
44190;DHT22;29856;52.144;5.430;2023-12-07T12:08:23;3.20;99.90
44190;DHT22;29856;52.144;5.430;2023-12-07T12:10:52;3.30;99.90
44190;DHT22;29856;52.144;5.430;2023-12-07T12:13:18;3.20;99.90
44190;DHT22;29856;52.144;5.430;2023-12-07T12:15:43;3.20;99.90
44190;DHT22;29856;52.144;5.430;2023-12-07T12:18:09;3.20;99.90
44190;DHT22;29856;52.144;5.430;2023-12-07T12:20:35;3.30;99.90
44190;DHT22;29856;52.144;5.430;2023-12-07T12:23:01;3.10;99.90
44190;DHT22;29856;52.144;5.430;2023-12-07T12:25:28;3.20;99.90
44190;DHT22;29856;52.144;5.430;2023-12-07T12:27:56;3.20;99.90
44190;DHT22;29856;52.144;5.430;2023-12-07T12:30:22;3.20;99.90
44190;DHT22;29856;52.144;5.430;2023-12-07T12:32:48;3.20;99.90
44190;DHT22;29856;52.144;5.430;2023-12-07T12:35:14;3.20;99.90
44190;DHT22;29856;52.144;5.430;2023-12-07T12:37:43;3.40;99.90
44190;DHT22;29856;52.144;5.430;2023-12-07T12:40:13;3.40;99.90
44190;DHT22;29856;52.144;5.430;2023-12-07T12:42:39;3.50;99.90
44190;DHT22;29856;52.144;5.430;2023-12-07T12:45:07;3.40;99.90
44190;DHT22;29856;52.144;5.430;2023-12-07T12:47:33;3.40;99.90
44190;DHT22;29856;52.144;5.430;2023-12-07T12:49:59;3.40;99.90
44190;DHT22;29856;52.144;5.430;2023-12-07T12:52:24;3.50;99.90
44190;DHT22;29856;52.144;5.430;2023-12-07T12:54:50;3.50;99.90
44190;DHT22;29856;52.144;5.430;2023-12-07T12:57:15;3.60;99.90
44190;DHT22;29856;52.144;5.430;2023-12-07T12:59:41;3.60;99.90
44190;DHT22;29856;52.144;5.430;2023-12-07T13:02:06;3.70;99.90
44190;DHT22;29856;52.144;5.430;2023-12-07T13:04:32;3.60;99.90
44190;DHT22;29856;52.144;5.430;2023-12-07T13:06:57;3.60;99.90
44190;DHT22;29856;52.144;5.430;2023-12-07T13:09:23;3.70;99.90
44190;DHT22;29856;52.144;5.430;2023-12-07T13:11:49;3.80;99.90
44190;DHT22;29856;52.144;5.430;2023-12-07T13:14:14;3.80;99.90
44190;DHT22;29856;52.144;5.430;2023-12-07T13:16:40;3.70;99.90
44190;DHT22;29856;52.144;5.430;2023-12-07T13:19:05;3.80;99.90
44190;DHT22;29856;52.144;5.430;2023-12-07T13:21:31;3.80;99.90
44190;DHT22;29856;52.144;5.430;2023-12-07T13:23:56;3.90;99.90
44190;DHT22;29856;52.144;5.430;2023-12-07T13:26:22;3.80;99.90
44190;DHT22;29856;52.144;5.430;2023-12-07T13:28:47;3.80;99.90
44190;DHT22;29856;52.144;5.430;2023-12-07T13:31:13;3.80;99.90
44190;DHT22;29856;52.144;5.430;2023-12-07T13:33:38;3.80;99.90
44190;DHT22;29856;52.144;5.430;2023-12-07T13:36:04;4.00;99.90
44190;DHT22;29856;52.144;5.430;2023-12-07T13:38:30;3.90;99.90
44190;DHT22;29856;52.144;5.430;2023-12-07T13:40:56;4.00;99.90
44190;DHT22;29856;52.144;5.430;2023-12-07T13:43:21;4.00;99.90
44190;DHT22;29856;52.144;5.430;2023-12-07T13:45:47;4.10;99.90
44190;DHT22;29856;52.144;5.430;2023-12-07T13:48:12;4.10;99.90
44190;DHT22;29856;52.144;5.430;2023-12-07T13:50:38;4.20;99.90
44190;DHT22;29856;52.144;5.430;2023-12-07T13:53:03;4.20;99.90
44190;DHT22;29856;52.144;5.430;2023-12-07T13:55:29;4.10;99.90
44190;DHT22;29856;52.144;5.430;2023-12-07T13:57:54;4.20;99.90
44190;DHT22;29856;52.144;5.430;2023-12-07T14:00:20;4.30;99.90
44190;DHT22;29856;52.144;5.430;2023-12-07T14:02:45;4.20;99.90
44190;DHT22;29856;52.144;5.430;2023-12-07T14:05:11;4.20;99.90
44190;DHT22;29856;52.144;5.430;2023-12-07T14:07:36;4.10;99.90
44190;DHT22;29856;52.144;5.430;2023-12-07T14:10:02;4.20;99.90
44190;DHT22;29856;52.144;5.430;2023-12-07T14:12:27;4.20;99.90
44190;DHT22;29856;52.144;5.430;2023-12-07T14:14:55;4.10;99.90
44190;DHT22;29856;52.144;5.430;2023-12-07T14:17:20;4.10;99.90
44190;DHT22;29856;52.144;5.430;2023-12-07T14:19:46;4.10;99.90
44190;DHT22;29856;52.144;5.430;2023-12-07T14:22:11;4.10;99.90
44190;DHT22;29856;52.144;5.430;2023-12-07T14:24:37;4.00;99.90
44190;DHT22;29856;52.144;5.430;2023-12-07T14:27:03;4.00;99.90
44190;DHT22;29856;52.144;5.430;2023-12-07T14:29:29;3.90;99.90
44190;DHT22;29856;52.144;5.430;2023-12-07T14:31:55;3.90;99.90
44190;DHT22;29856;52.144;5.430;2023-12-07T14:34:21;3.80;99.90
44190;DHT22;29856;52.144;5.430;2023-12-07T14:36:46;3.90;99.90
44190;DHT22;29856;52.144;5.430;2023-12-07T14:39:12;3.90;99.90
44190;DHT22;29856;52.144;5.430;2023-12-07T14:41:38;3.90;99.90
44190;DHT22;29856;52.144;5.430;2023-12-07T14:44:03;3.80;99.90
44190;DHT22;29856;52.144;5.430;2023-12-07T14:46:29;3.70;99.90
44190;DHT22;29856;52.144;5.430;2023-12-07T14:48:54;3.80;99.90
44190;DHT22;29856;52.144;5.430;2023-12-07T14:51:21;3.70;99.90
44190;DHT22;29856;52.144;5.430;2023-12-07T14:53:47;3.90;99.90
44190;DHT22;29856;52.144;5.430;2023-12-07T14:56:12;3.90;99.90
44190;DHT22;29856;52.144;5.430;2023-12-07T14:58:38;3.80;99.90
44190;DHT22;29856;52.144;5.430;2023-12-07T15:01:03;3.90;99.90
44190;DHT22;29856;52.144;5.430;2023-12-07T15:03:29;3.80;99.90
44190;DHT22;29856;52.144;5.430;2023-12-07T15:05:54;3.80;99.90
44190;DHT22;29856;52.144;5.430;2023-12-07T15:08:20;3.90;99.90
44190;DHT22;29856;52.144;5.430;2023-12-07T15:10:45;3.90;99.90
44190;DHT22;29856;52.144;5.430;2023-12-07T15:13:11;3.90;99.90
44190;DHT22;29856;52.144;5.430;2023-12-07T15:15:36;3.70;99.90
44190;DHT22;29856;52.144;5.430;2023-12-07T15:18:02;3.80;99.90
44190;DHT22;29856;52.144;5.430;2023-12-07T15:20:27;3.70;99.90
44190;DHT22;29856;52.144;5.430;2023-12-07T15:22:53;3.60;99.90
44190;DHT22;29856;52.144;5.430;2023-12-07T15:25:18;3.60;99.90
44190;DHT22;29856;52.144;5.430;2023-12-07T15:27:43;3.60;99.90
44190;DHT22;29856;52.144;5.430;2023-12-07T15:30:09;3.50;99.90
44190;DHT22;29856;52.144;5.430;2023-12-07T15:32:35;3.50;99.90
44190;DHT22;29856;52.144;5.430;2023-12-07T15:35:00;3.50;99.90
44190;DHT22;29856;52.144;5.430;2023-12-07T15:37:26;3.40;99.90
44190;DHT22;29856;52.144;5.430;2023-12-07T15:39:51;3.50;99.90